createdAt,value
2022-10-28T00:04:58.919Z,101924.31
2022-10-28T00:10:05.558Z,101922.63
2022-10-28T00:15:11.946Z,101919.09
2022-10-28T00:20:15.835Z,101909.72
2022-10-28T00:25:24.655Z,101921.31
2022-10-28T00:35:33.982Z,101901.78
2022-10-28T00:40:39.540Z,101899.00
2022-10-28T00:45:44.327Z,101905.56
2022-10-28T00:50:55.120Z,101921.09
2022-10-28T00:55:57.460Z,101919.66
2022-10-28T01:00:59.404Z,101924.34
2022-10-28T01:06:13.137Z,101919.44
2022-10-28T01:11:59.845Z,101924.00
2022-10-28T01:17:08.661Z,101923.34
2022-10-28T01:22:40.811Z,101905.38
2022-10-28T01:27:54.944Z,101906.47
2022-10-28T01:33:21.169Z,101901.81
2022-10-28T01:38:28.837Z,101885.38
2022-10-28T01:43:36.829Z,101871.94
2022-10-28T01:48:56.754Z,101862.66
2022-10-28T01:54:00.141Z,101854.56
2022-10-28T01:59:14.948Z,101853.75
2022-10-28T02:04:21.448Z,101848.16
2022-10-28T02:09:36.680Z,101835.56
2022-10-28T02:15:10.884Z,101840.94
2022-10-28T02:20:38.638Z,101842.13
2022-10-28T02:25:49.414Z,101846.22
2022-10-28T02:30:53.888Z,101829.97
2022-10-28T02:35:59.735Z,101838.53
2022-10-28T02:41:06.991Z,101831.69
2022-10-28T02:46:13.813Z,101819.09
2022-10-28T02:51:16.213Z,101822.59
2022-10-28T02:56:22.527Z,101819.09
2022-10-28T03:01:29.293Z,101833.53
2022-10-28T03:06:31.515Z,101830.56
2022-10-28T03:11:34.119Z,101831.94
2022-10-28T03:16:35.969Z,101834.31
2022-10-28T03:21:40.066Z,101824.09
2022-10-28T03:26:42.111Z,101829.84
2022-10-28T03:31:47.892Z,101834.94
2022-10-28T03:36:52.025Z,101842.34
2022-10-28T03:41:58.489Z,101838.16
2022-10-28T03:47:00.300Z,101839.34
2022-10-28T03:52:04.109Z,101828.94
2022-10-28T03:57:05.867Z,101824.44
2022-10-28T04:02:10.125Z,101824.13
2022-10-28T04:07:15.020Z,101819.13
2022-10-28T04:12:19.678Z,101810.94
2022-10-28T04:17:23.837Z,101801.75
2022-10-28T04:22:28.005Z,101802.28
2022-10-28T04:27:31.755Z,101796.25
2022-10-28T04:32:33.602Z,101792.72
2022-10-28T04:37:38.646Z,101778.78
2022-10-28T04:42:44.961Z,101764.03
2022-10-28T04:47:46.727Z,101756.19
2022-10-28T04:52:50.951Z,101765.22
2022-10-28T04:57:59.440Z,101763.41
2022-10-28T05:03:05.195Z,101764.41
2022-10-28T05:08:10.855Z,101765.44
2022-10-28T05:13:14.957Z,101752.34
2022-10-28T05:18:16.965Z,101747.16
2022-10-28T05:23:27.149Z,101746.31
2022-10-28T05:28:39.839Z,101750.47
2022-10-28T05:33:44.087Z,101750.13
2022-10-28T05:38:49.737Z,101741.91
2022-10-28T05:43:54.347Z,101745.06
2022-10-28T05:48:56.431Z,101750.28
2022-10-28T05:54:06.515Z,101746.56
2022-10-28T05:59:12.789Z,101738.16
2022-10-28T06:04:19.465Z,101743.16
2022-10-28T06:09:23.841Z,101746.50
2022-10-28T06:14:28.748Z,101742.16
2022-10-28T06:19:30.580Z,101741.97
2022-10-28T06:24:34.872Z,101745.84
2022-10-28T06:29:36.665Z,101748.38
2022-10-28T06:34:38.465Z,101757.09
2022-10-28T06:39:44.696Z,101754.22
2022-10-28T06:44:46.477Z,101753.38
2022-10-28T06:49:51.331Z,101751.88
2022-10-28T06:54:55.209Z,101747.84
2022-10-28T07:00:01.633Z,101750.81
2022-10-28T07:05:06.336Z,101764.56
2022-10-28T07:10:08.415Z,101755.97
2022-10-28T07:15:15.383Z,101761.63
2022-10-28T07:20:17.316Z,101765.31
2022-10-28T07:25:20.180Z,101754.66
2022-10-28T07:30:29.264Z,101757.13
2022-10-28T07:35:31.654Z,101757.06
2022-10-28T07:40:33.544Z,101751.41
2022-10-28T07:45:40.050Z,101751.16
2022-10-28T07:50:41.938Z,101762.31
2022-10-28T07:55:48.174Z,101770.75
2022-10-28T08:00:52.177Z,101770.31
2022-10-28T08:06:05.601Z,101764.66
2022-10-28T08:11:19.106Z,101766.22
2022-10-28T08:16:24.337Z,101757.66
2022-10-28T08:21:29.087Z,101761.75
2022-10-28T08:26:33.349Z,101750.72
2022-10-28T08:31:37.332Z,101751.72
2022-10-28T08:36:40.219Z,101748.34
2022-10-28T08:41:49.873Z,101748.28
2022-10-28T08:47:36.296Z,101740.13
2022-10-28T08:52:53.832Z,101739.88
2022-10-28T08:58:01.612Z,101745.63
2022-10-28T09:03:12.761Z,101750.13
2022-10-28T09:08:28.365Z,101742.78
2022-10-28T09:13:42.043Z,101735.41
2022-10-28T09:18:52.406Z,101750.69
2022-10-28T09:24:19.162Z,101742.66
2022-10-28T09:29:32.980Z,101742.25
2022-10-28T09:34:45.147Z,101725.09
2022-10-28T09:40:02.680Z,101722.47
2022-10-28T09:45:13.097Z,101725.06
2022-10-28T09:50:27.494Z,101734.66
2022-10-28T09:55:29.668Z,101743.84
2022-10-28T10:00:32.128Z,101740.06
2022-10-28T10:05:39.302Z,101740.94
2022-10-28T10:10:59.591Z,101741.31
2022-10-28T10:16:08.011Z,101737.53
2022-10-28T10:21:16.337Z,101745.00
2022-10-28T10:26:20.215Z,101738.28
2022-10-28T10:31:27.387Z,101734.13
2022-10-28T10:36:31.705Z,101729.75
2022-10-28T10:41:37.146Z,101737.66
2022-10-28T10:46:38.902Z,101742.59
2022-10-28T10:51:53.093Z,101729.31
2022-10-28T10:56:55.153Z,101723.88
2022-10-28T11:01:59.785Z,101725.72
2022-10-28T11:07:18.337Z,101721.00
2022-10-28T11:12:35.647Z,101729.97
2022-10-28T11:17:38.549Z,101715.97
2022-10-28T11:23:01.730Z,101722.84
2022-10-28T11:28:25.742Z,101723.56
2022-10-28T11:33:47.813Z,101718.84
2022-10-28T11:38:58.804Z,101718.03
2022-10-28T11:44:08.779Z,101699.72
2022-10-28T11:49:42.376Z,101698.41
2022-10-28T11:55:08.550Z,101694.66
2022-10-28T12:00:26.145Z,101691.75
2022-10-28T12:05:37.442Z,101685.25
2022-10-28T12:10:50.444Z,101687.72
2022-10-28T12:16:07.379Z,101687.84
2022-10-28T12:21:32.650Z,101682.28
2022-10-28T12:26:59.433Z,101677.31
2022-10-28T12:32:05.867Z,101675.84
2022-10-28T12:37:16.241Z,101667.94
2022-10-28T12:42:23.372Z,101653.53
2022-10-28T12:47:49.958Z,101654.19
2022-10-28T12:52:55.777Z,101645.41
2022-10-28T12:58:16.178Z,101639.81
2022-10-28T13:03:23.593Z,101640.69
2022-10-28T13:09:03.925Z,101622.56
2022-10-28T13:14:35.779Z,101632.16
2022-10-28T13:19:45.766Z,101618.53
2022-10-28T13:25:02.476Z,101609.41
2022-10-28T13:30:16.749Z,101609.09
2022-10-28T13:35:24.001Z,101615.34
2022-10-28T13:40:33.956Z,101620.78
2022-10-28T13:45:53.803Z,101622.00
2022-10-28T13:51:32.219Z,101624.81
2022-10-28T13:56:45.923Z,101622.19
2022-10-28T14:01:56.731Z,101618.88
2022-10-28T14:07:12.801Z,101604.63
2022-10-28T14:12:23.008Z,101625.50
2022-10-28T14:17:30.964Z,101632.41
2022-10-28T14:22:35.669Z,101634.47
2022-10-28T14:27:47.081Z,101637.75
2022-10-28T14:32:54.229Z,101639.72
2022-10-28T14:38:32.936Z,101642.50
2022-10-28T14:43:55.862Z,101636.94
2022-10-28T14:48:58.924Z,101635.25
2022-10-28T14:54:03.941Z,101620.94
2022-10-28T14:59:53.412Z,101627.50
2022-10-28T15:05:03.270Z,101647.66
2022-10-28T15:10:15.871Z,101646.25
2022-10-28T15:15:22.623Z,101642.78
2022-10-28T15:20:26.912Z,101642.00
2022-10-28T15:25:29.930Z,101647.13
2022-10-28T15:30:39.898Z,101659.59
2022-10-28T15:35:48.942Z,101659.88
2022-10-28T15:40:56.294Z,101664.06
2022-10-28T15:46:15.354Z,101667.06
2022-10-28T15:51:20.198Z,101666.69
2022-10-28T15:56:25.458Z,101668.53
2022-10-28T16:01:45.853Z,101668.16
2022-10-28T16:06:57.647Z,101657.53
2022-10-28T16:12:05.770Z,101670.06
2022-10-28T16:17:23.671Z,101671.28
2022-10-28T16:22:28.059Z,101671.13
2022-10-28T16:27:34.189Z,101685.16
2022-10-28T16:32:39.825Z,101688.88
2022-10-28T16:37:55.513Z,101685.56
2022-10-28T16:43:01.830Z,101685.34
2022-10-28T16:48:11.087Z,101697.66
2022-10-28T16:53:13.103Z,101700.56
2022-10-28T16:58:20.668Z,101702.72
2022-10-28T17:03:26.892Z,101711.72
2022-10-28T17:08:56.532Z,101722.81
2022-10-28T17:13:52.125Z,101726.78
2022-10-28T17:18:54.469Z,101716.56
2022-10-28T17:23:56.654Z,101735.81
2022-10-28T17:29:03.315Z,101736.44
2022-10-28T17:34:08.253Z,101735.41
2022-10-28T17:39:15.741Z,101750.25
2022-10-28T17:44:19.762Z,101752.75
2022-10-28T17:49:21.727Z,101761.31
2022-10-28T17:59:26.874Z,101774.66
2022-10-28T18:04:30.691Z,101794.25
2022-10-28T18:09:33.051Z,101793.22
2022-10-28T18:14:34.958Z,101799.63
2022-10-28T18:19:37.099Z,101801.50
2022-10-28T18:24:38.943Z,101822.78
2022-10-28T18:29:41.739Z,101832.34
2022-10-28T18:34:45.030Z,101828.59
2022-10-28T18:39:55.102Z,101837.53
2022-10-28T18:45:00.188Z,101840.44
2022-10-28T18:50:03.060Z,101855.63
2022-10-28T18:55:08.240Z,101860.84
2022-10-28T19:00:18.364Z,101860.81
2022-10-28T19:05:26.983Z,101871.63
2022-10-28T19:10:29.093Z,101883.66
2022-10-28T19:15:31.288Z,101894.06
2022-10-28T19:20:37.233Z,101883.88
2022-10-28T19:25:39.575Z,101896.94
2022-10-28T19:30:41.756Z,101895.69
2022-10-28T19:35:50.175Z,101905.22
2022-10-28T19:40:54.678Z,101907.94
2022-10-28T19:46:03.873Z,101923.75
2022-10-28T19:51:11.949Z,101937.47
2022-10-28T20:01:18.553Z,101923.09
2022-10-28T20:06:37.063Z,101913.13
2022-10-28T20:11:41.727Z,101953.69
2022-10-28T20:16:50.971Z,101956.38
2022-10-28T20:21:53.134Z,101964.69
2022-10-28T20:26:54.959Z,101994.22
2022-10-28T20:31:59.065Z,101986.56
2022-10-28T20:37:05.972Z,101992.97
2022-10-28T20:42:10.068Z,102007.09
2022-10-28T20:47:17.826Z,102013.53
2022-10-28T20:57:24.600Z,102015.75
2022-10-28T21:02:28.495Z,102027.91
2022-10-28T21:07:37.673Z,102036.19
2022-10-28T21:12:42.196Z,102036.78
2022-10-28T21:17:44.143Z,102031.34
2022-10-28T21:22:45.951Z,102049.53
2022-10-28T21:28:06.312Z,102055.28
2022-10-28T21:33:11.694Z,102062.69
2022-10-28T21:38:17.135Z,102057.59
2022-10-28T21:43:18.924Z,102043.38
2022-10-28T21:48:23.524Z,102045.53
2022-10-28T21:53:26.036Z,102058.13
2022-10-28T21:58:30.095Z,102060.28
2022-10-28T22:03:35.072Z,102057.06
2022-10-28T22:08:38.952Z,102045.69
2022-10-28T22:13:45.089Z,102055.56
2022-10-28T22:18:49.242Z,102064.56
2022-10-28T22:23:51.299Z,102068.03
2022-10-28T22:28:53.325Z,102087.84
2022-10-28T22:34:00.282Z,102075.16
2022-10-28T22:39:05.560Z,102076.09
2022-10-28T22:44:07.687Z,102069.78
2022-10-28T22:49:11.993Z,102082.28
2022-10-28T22:54:20.616Z,102082.41
2022-10-28T22:59:22.375Z,102086.63
2022-10-28T23:04:26.550Z,102085.50
2022-10-28T23:09:30.544Z,102089.94
2022-10-28T23:14:39.115Z,102112.59
2022-10-28T23:19:43.130Z,102123.25
2022-10-28T23:24:47.090Z,102117.41
2022-10-28T23:29:48.927Z,102116.97
2022-10-28T23:34:53.019Z,102114.97
2022-10-28T23:39:59.323Z,102113.00
2022-10-28T23:45:03.353Z,102123.63
2022-10-28T23:50:14.916Z,102124.00
2022-10-28T23:55:16.718Z,102136.50
